sensor_id;sensor_type;location;lat;lon;timestamp;temperature;humidity
19330;DHT22;9799;48.214;16.388;2023-02-13T00:01:52;8.00;99.90
19330;DHT22;9799;48.214;16.388;2023-02-13T00:05:16;8.00;99.90
19330;DHT22;9799;48.214;16.388;2023-02-13T00:08:38;8.00;99.90
19330;DHT22;9799;48.214;16.388;2023-02-13T00:11:59;8.00;99.90
19330;DHT22;9799;48.214;16.388;2023-02-13T00:15:20;8.00;99.90
19330;DHT22;9799;48.214;16.388;2023-02-13T00:18:41;8.00;99.90
19330;DHT22;9799;48.214;16.388;2023-02-13T00:22:04;7.90;99.90
19330;DHT22;9799;48.214;16.388;2023-02-13T00:25:25;7.90;99.90
19330;DHT22;9799;48.214;16.388;2023-02-13T00:28:46;7.90;99.90
19330;DHT22;9799;48.214;16.388;2023-02-13T00:32:08;7.80;99.90
19330;DHT22;9799;48.214;16.388;2023-02-13T00:35:29;7.70;99.90
19330;DHT22;9799;48.214;16.388;2023-02-13T00:38:53;7.70;99.90
19330;DHT22;9799;48.214;16.388;2023-02-13T00:42:14;7.80;99.90
19330;DHT22;9799;48.214;16.388;2023-02-13T00:45:35;7.80;99.90
19330;DHT22;9799;48.214;16.388;2023-02-13T00:48:56;7.80;99.90
19330;DHT22;9799;48.214;16.388;2023-02-13T00:52:18;7.80;99.90
19330;DHT22;9799;48.214;16.388;2023-02-13T00:55:40;7.70;99.90
19330;DHT22;9799;48.214;16.388;2023-02-13T00:59:02;7.70;99.90
19330;DHT22;9799;48.214;16.388;2023-02-13T01:02:23;7.70;99.90
19330;DHT22;9799;48.214;16.388;2023-02-13T01:05:45;7.70;99.90
19330;DHT22;9799;48.214;16.388;2023-02-13T01:09:06;7.70;99.90
19330;DHT22;9799;48.214;16.388;2023-02-13T01:12:29;7.60;99.90
19330;DHT22;9799;48.214;16.388;2023-02-13T01:15:50;7.50;99.90
19330;DHT22;9799;48.214;16.388;2023-02-13T01:19:12;7.60;99.90
19330;DHT22;9799;48.214;16.388;2023-02-13T01:22:33;7.50;99.90
19330;DHT22;9799;48.214;16.388;2023-02-13T01:25:54;7.50;99.90
19330;DHT22;9799;48.214;16.388;2023-02-13T01:29:16;7.50;99.90
19330;DHT22;9799;48.214;16.388;2023-02-13T01:32:38;7.40;99.90
19330;DHT22;9799;48.214;16.388;2023-02-13T01:36:05;7.40;99.90
19330;DHT22;9799;48.214;16.388;2023-02-13T01:39:26;7.30;99.90
19330;DHT22;9799;48.214;16.388;2023-02-13T01:42:48;7.20;99.90
19330;DHT22;9799;48.214;16.388;2023-02-13T01:46:11;7.30;99.90
19330;DHT22;9799;48.214;16.388;2023-02-13T01:49:33;7.30;99.90
19330;DHT22;9799;48.214;16.388;2023-02-13T01:52:58;7.30;99.90
19330;DHT22;9799;48.214;16.388;2023-02-13T01:56:26;7.30;99.90
19330;DHT22;9799;48.214;16.388;2023-02-13T01:59:51;7.40;99.90
19330;DHT22;9799;48.214;16.388;2023-02-13T02:03:18;7.40;99.90
19330;DHT22;9799;48.214;16.388;2023-02-13T02:06:42;7.30;99.90
19330;DHT22;9799;48.214;16.388;2023-02-13T02:10:07;7.40;99.90
19330;DHT22;9799;48.214;16.388;2023-02-13T02:13:29;7.40;99.90
19330;DHT22;9799;48.214;16.388;2023-02-13T02:16:50;7.30;99.90
19330;DHT22;9799;48.214;16.388;2023-02-13T02:20:23;7.20;99.90
19330;DHT22;9799;48.214;16.388;2023-02-13T02:24:07;7.10;99.90
19330;DHT22;9799;48.214;16.388;2023-02-13T02:35:50;7.00;99.90
19330;DHT22;9799;48.214;16.388;2023-02-13T02:39:20;7.10;99.90
19330;DHT22;9799;48.214;16.388;2023-02-13T02:42:51;7.10;99.90
19330;DHT22;9799;48.214;16.388;2023-02-13T02:46:21;7.00;99.90
19330;DHT22;9799;48.214;16.388;2023-02-13T02:49:50;7.00;99.90
19330;DHT22;9799;48.214;16.388;2023-02-13T02:53:29;7.10;99.90
19330;DHT22;9799;48.214;16.388;2023-02-13T02:56:53;7.20;99.90
19330;DHT22;9799;48.214;16.388;2023-02-13T03:00:18;7.20;99.90
19330;DHT22;9799;48.214;16.388;2023-02-13T03:03:59;7.20;99.90
19330;DHT22;9799;48.214;16.388;2023-02-13T03:07:38;7.00;99.90
19330;DHT22;9799;48.214;16.388;2023-02-13T03:11:00;6.90;99.90
19330;DHT22;9799;48.214;16.388;2023-02-13T03:14:50;6.80;99.90
19330;DHT22;9799;48.214;16.388;2023-02-13T03:18:12;6.90;99.90
19330;DHT22;9799;48.214;16.388;2023-02-13T03:21:52;7.00;99.90
19330;DHT22;9799;48.214;16.388;2023-02-13T03:25:37;6.90;99.90
19330;DHT22;9799;48.214;16.388;2023-02-13T03:29:10;6.80;99.90
19330;DHT22;9799;48.214;16.388;2023-02-13T03:32:58;6.80;99.90
19330;DHT22;9799;48.214;16.388;2023-02-13T03:36:30;7.00;99.90
19330;DHT22;9799;48.214;16.388;2023-02-13T03:40:13;7.00;99.90
19330;DHT22;9799;48.214;16.388;2023-02-13T03:43:39;6.90;99.90
19330;DHT22;9799;48.214;16.388;2023-02-13T03:47:05;6.80;99.90
19330;DHT22;9799;48.214;16.388;2023-02-13T03:50:28;6.80;99.90
19330;DHT22;9799;48.214;16.388;2023-02-13T03:53:53;6.80;99.90
19330;DHT22;9799;48.214;16.388;2023-02-13T03:57:18;6.90;99.90
19330;DHT22;9799;48.214;16.388;2023-02-13T04:01:00;6.90;99.90
19330;DHT22;9799;48.214;16.388;2023-02-13T04:04:29;6.90;99.90
19330;DHT22;9799;48.214;16.388;2023-02-13T04:07:52;6.80;99.90
19330;DHT22;9799;48.214;16.388;2023-02-13T04:11:17;6.90;99.90
19330;DHT22;9799;48.214;16.388;2023-02-13T04:14:47;6.90;99.90
19330;DHT22;9799;48.214;16.388;2023-02-13T04:18:12;7.00;99.90
19330;DHT22;9799;48.214;16.388;2023-02-13T04:21:38;7.00;99.90
19330;DHT22;9799;48.214;16.388;2023-02-13T04:24:59;6.90;99.90
19330;DHT22;9799;48.214;16.388;2023-02-13T04:28:21;6.90;99.90
19330;DHT22;9799;48.214;16.388;2023-02-13T04:31:42;6.90;99.90
19330;DHT22;9799;48.214;16.388;2023-02-13T04:35:03;7.00;99.90
19330;DHT22;9799;48.214;16.388;2023-02-13T04:38:26;7.00;99.90
19330;DHT22;9799;48.214;16.388;2023-02-13T04:41:47;7.00;99.90
19330;DHT22;9799;48.214;16.388;2023-02-13T04:45:09;7.10;99.90
19330;DHT22;9799;48.214;16.388;2023-02-13T04:48:30;7.20;99.90
19330;DHT22;9799;48.214;16.388;2023-02-13T04:51:51;7.30;99.90
19330;DHT22;9799;48.214;16.388;2023-02-13T04:55:14;7.30;99.90
19330;DHT22;9799;48.214;16.388;2023-02-13T04:58:35;7.30;99.90
19330;DHT22;9799;48.214;16.388;2023-02-13T05:01:56;7.40;99.90
19330;DHT22;9799;48.214;16.388;2023-02-13T05:05:18;7.50;99.90
19330;DHT22;9799;48.214;16.388;2023-02-13T05:08:40;7.40;99.90
19330;DHT22;9799;48.214;16.388;2023-02-13T05:12:03;7.40;99.90
19330;DHT22;9799;48.214;16.388;2023-02-13T05:15:24;7.20;99.90
19330;DHT22;9799;48.214;16.388;2023-02-13T05:18:45;7.20;99.90
19330;DHT22;9799;48.214;16.388;2023-02-13T05:22:07;7.40;99.90
19330;DHT22;9799;48.214;16.388;2023-02-13T05:25:47;7.30;99.90
19330;DHT22;9799;48.214;16.388;2023-02-13T05:29:09;7.20;99.90
19330;DHT22;9799;48.214;16.388;2023-02-13T05:32:41;7.20;99.90
19330;DHT22;9799;48.214;16.388;2023-02-13T05:36:03;7.10;99.90
19330;DHT22;9799;48.214;16.388;2023-02-13T05:39:24;6.90;99.90
19330;DHT22;9799;48.214;16.388;2023-02-13T05:42:45;7.10;99.90
19330;DHT22;9799;48.214;16.388;2023-02-13T05:46:09;7.20;99.90
19330;DHT22;9799;48.214;16.388;2023-02-13T05:49:30;7.10;99.90
19330;DHT22;9799;48.214;16.388;2023-02-13T05:52:51;7.20;99.90
19330;DHT22;9799;48.214;16.388;2023-02-13T05:56:13;7.20;99.90
19330;DHT22;9799;48.214;16.388;2023-02-13T05:59:34;7.20;99.90
19330;DHT22;9799;48.214;16.388;2023-02-13T06:02:56;7.20;99.90
19330;DHT22;9799;48.214;16.388;2023-02-13T06:06:17;7.20;99.90
19330;DHT22;9799;48.214;16.388;2023-02-13T06:09:39;7.30;99.90
19330;DHT22;9799;48.214;16.388;2023-02-13T06:13:00;7.40;99.90
19330;DHT22;9799;48.214;16.388;2023-02-13T06:16:21;7.40;99.90
19330;DHT22;9799;48.214;16.388;2023-02-13T06:19:44;7.40;99.90
19330;DHT22;9799;48.214;16.388;2023-02-13T06:23:05;7.50;99.90
19330;DHT22;9799;48.214;16.388;2023-02-13T06:26:26;7.50;99.90
19330;DHT22;9799;48.214;16.388;2023-02-13T06:29:47;7.50;99.90
19330;DHT22;9799;48.214;16.388;2023-02-13T06:33:08;7.60;99.90
19330;DHT22;9799;48.214;16.388;2023-02-13T06:36:31;7.60;99.90
19330;DHT22;9799;48.214;16.388;2023-02-13T06:39:52;7.60;99.90
19330;DHT22;9799;48.214;16.388;2023-02-13T06:43:14;7.60;99.90
19330;DHT22;9799;48.214;16.388;2023-02-13T06:46:36;7.60;99.90
19330;DHT22;9799;48.214;16.388;2023-02-13T06:49:57;7.70;99.90
19330;DHT22;9799;48.214;16.388;2023-02-13T06:53:20;7.70;99.90
19330;DHT22;9799;48.214;16.388;2023-02-13T06:56:43;7.70;99.90
19330;DHT22;9799;48.214;16.388;2023-02-13T07:00:06;7.80;99.90
19330;DHT22;9799;48.214;16.388;2023-02-13T07:03:31;7.80;99.90
19330;DHT22;9799;48.214;16.388;2023-02-13T07:06:53;7.70;99.90
19330;DHT22;9799;48.214;16.388;2023-02-13T07:10:17;7.80;99.90
19330;DHT22;9799;48.214;16.388;2023-02-13T07:13:41;7.80;99.90
19330;DHT22;9799;48.214;16.388;2023-02-13T07:17:02;7.80;99.90
19330;DHT22;9799;48.214;16.388;2023-02-13T07:20:24;7.70;99.90
19330;DHT22;9799;48.214;16.388;2023-02-13T07:23:45;7.80;99.90
19330;DHT22;9799;48.214;16.388;2023-02-13T07:27:08;7.70;99.90
19330;DHT22;9799;48.214;16.388;2023-02-13T07:30:29;7.60;99.90
19330;DHT22;9799;48.214;16.388;2023-02-13T07:33:50;7.60;99.90
19330;DHT22;9799;48.214;16.388;2023-02-13T07:37:12;7.60;99.90
19330;DHT22;9799;48.214;16.388;2023-02-13T07:40:33;7.60;99.90
19330;DHT22;9799;48.214;16.388;2023-02-13T07:43:56;7.60;99.90
19330;DHT22;9799;48.214;16.388;2023-02-13T07:47:17;7.60;99.90
19330;DHT22;9799;48.214;16.388;2023-02-13T07:50:38;7.60;99.90
19330;DHT22;9799;48.214;16.388;2023-02-13T07:54:00;7.70;99.90
19330;DHT22;9799;48.214;16.388;2023-02-13T07:57:22;7.70;99.90
19330;DHT22;9799;48.214;16.388;2023-02-13T08:00:44;7.70;99.90
19330;DHT22;9799;48.214;16.388;2023-02-13T08:04:24;7.70;99.90
19330;DHT22;9799;48.214;16.388;2023-02-13T08:07:48;7.70;99.90
19330;DHT22;9799;48.214;16.388;2023-02-13T08:11:21;7.70;99.90
19330;DHT22;9799;48.214;16.388;2023-02-13T08:15:01;7.70;99.90
19330;DHT22;9799;48.214;16.388;2023-02-13T08:18:24;7.70;99.90
19330;DHT22;9799;48.214;16.388;2023-02-13T08:21:45;7.70;99.90
19330;DHT22;9799;48.214;16.388;2023-02-13T08:25:07;7.70;99.90
19330;DHT22;9799;48.214;16.388;2023-02-13T08:28:29;7.70;99.90
19330;DHT22;9799;48.214;16.388;2023-02-13T08:31:50;7.70;99.90
19330;DHT22;9799;48.214;16.388;2023-02-13T08:35:12;7.80;99.90
19330;DHT22;9799;48.214;16.388;2023-02-13T08:38:33;7.80;99.90
19330;DHT22;9799;48.214;16.388;2023-02-13T08:41:55;7.80;99.90
19330;DHT22;9799;48.214;16.388;2023-02-13T08:45:16;7.80;99.90
19330;DHT22;9799;48.214;16.388;2023-02-13T08:48:37;7.90;99.90
19330;DHT22;9799;48.214;16.388;2023-02-13T08:52:00;7.80;99.90
19330;DHT22;9799;48.214;16.388;2023-02-13T08:55:23;7.90;99.90
19330;DHT22;9799;48.214;16.388;2023-02-13T08:58:47;7.90;99.90
19330;DHT22;9799;48.214;16.388;2023-02-13T09:02:10;7.90;99.90
19330;DHT22;9799;48.214;16.388;2023-02-13T09:05:31;7.90;99.90
19330;DHT22;9799;48.214;16.388;2023-02-13T09:08:54;8.00;99.90
19330;DHT22;9799;48.214;16.388;2023-02-13T09:12:15;8.00;99.90
19330;DHT22;9799;48.214;16.388;2023-02-13T09:15:37;8.00;99.90
19330;DHT22;9799;48.214;16.388;2023-02-13T09:18:58;8.00;99.90
19330;DHT22;9799;48.214;16.388;2023-02-13T09:22:20;8.00;99.90
19330;DHT22;9799;48.214;16.388;2023-02-13T09:25:42;8.00;99.90
19330;DHT22;9799;48.214;16.388;2023-02-13T09:29:03;8.00;99.90
19330;DHT22;9799;48.214;16.388;2023-02-13T09:32:25;8.10;99.90
19330;DHT22;9799;48.214;16.388;2023-02-13T09:35:46;8.10;99.90
19330;DHT22;9799;48.214;16.388;2023-02-13T09:39:08;8.10;99.90
19330;DHT22;9799;48.214;16.388;2023-02-13T09:42:33;8.10;99.90
19330;DHT22;9799;48.214;16.388;2023-02-13T09:46:00;8.10;99.90
19330;DHT22;9799;48.214;16.388;2023-02-13T09:49:24;8.10;99.90
19330;DHT22;9799;48.214;16.388;2023-02-13T09:52:49;8.00;99.90
19330;DHT22;9799;48.214;16.388;2023-02-13T09:56:15;8.00;99.90
19330;DHT22;9799;48.214;16.388;2023-02-13T09:59:49;8.00;99.90
19330;DHT22;9799;48.214;16.388;2023-02-13T10:03:27;8.00;99.90
19330;DHT22;9799;48.214;16.388;2023-02-13T10:06:55;8.00;99.90
19330;DHT22;9799;48.214;16.388;2023-02-13T10:10:27;8.00;99.90
19330;DHT22;9799;48.214;16.388;2023-02-13T10:14:00;8.10;99.90
19330;DHT22;9799;48.214;16.388;2023-02-13T10:17:29;8.10;99.90
19330;DHT22;9799;48.214;16.388;2023-02-13T10:20:55;8.10;99.90
19330;DHT22;9799;48.214;16.388;2023-02-13T10:24:24;8.00;99.90
19330;DHT22;9799;48.214;16.388;2023-02-13T10:27:51;8.00;99.90
19330;DHT22;9799;48.214;16.388;2023-02-13T10:31:16;8.10;99.90
19330;DHT22;9799;48.214;16.388;2023-02-13T10:34:42;8.20;99.90
19330;DHT22;9799;48.214;16.388;2023-02-13T10:38:12;8.40;99.90
19330;DHT22;9799;48.214;16.388;2023-02-13T10:41:41;8.30;99.90
19330;DHT22;9799;48.214;16.388;2023-02-13T10:45:27;8.20;99.90
19330;DHT22;9799;48.214;16.388;2023-02-13T10:49:16;8.40;99.90
19330;DHT22;9799;48.214;16.388;2023-02-13T10:52:49;8.40;99.90
19330;DHT22;9799;48.214;16.388;2023-02-13T10:56:24;8.40;99.90
19330;DHT22;9799;48.214;16.388;2023-02-13T10:59:57;8.50;99.90
19330;DHT22;9799;48.214;16.388;2023-02-13T11:03:21;8.50;99.90
19330;DHT22;9799;48.214;16.388;2023-02-13T11:06:48;8.60;99.90
19330;DHT22;9799;48.214;16.388;2023-02-13T11:10:15;8.60;99.90
19330;DHT22;9799;48.214;16.388;2023-02-13T11:13:37;8.60;99.90
19330;DHT22;9799;48.214;16.388;2023-02-13T11:17:02;8.70;99.90
19330;DHT22;9799;48.214;16.388;2023-02-13T11:20:33;8.70;99.90
19330;DHT22;9799;48.214;16.388;2023-02-13T11:23:55;8.70;99.90
19330;DHT22;9799;48.214;16.388;2023-02-13T11:27:23;8.80;99.90
19330;DHT22;9799;48.214;16.388;2023-02-13T11:30:46;8.70;99.90
19330;DHT22;9799;48.214;16.388;2023-02-13T11:34:24;8.70;99.90
19330;DHT22;9799;48.214;16.388;2023-02-13T11:37:45;8.60;99.90
19330;DHT22;9799;48.214;16.388;2023-02-13T11:41:09;8.60;99.90
19330;DHT22;9799;48.214;16.388;2023-02-13T11:44:32;8.70;99.90
19330;DHT22;9799;48.214;16.388;2023-02-13T11:47:54;8.60;99.90
19330;DHT22;9799;48.214;16.388;2023-02-13T11:51:15;8.80;99.90
19330;DHT22;9799;48.214;16.388;2023-02-13T11:54:39;8.80;99.90
19330;DHT22;9799;48.214;16.388;2023-02-13T11:58:03;8.60;99.90
19330;DHT22;9799;48.214;16.388;2023-02-13T12:01:40;8.60;99.90
19330;DHT22;9799;48.214;16.388;2023-02-13T12:05:16;8.70;99.90
19330;DHT22;9799;48.214;16.388;2023-02-13T12:08:38;8.80;99.90
19330;DHT22;9799;48.214;16.388;2023-02-13T12:12:01;8.80;99.90
19330;DHT22;9799;48.214;16.388;2023-02-13T12:15:26;8.70;99.90
19330;DHT22;9799;48.214;16.388;2023-02-13T12:18:51;8.80;99.90
19330;DHT22;9799;48.214;16.388;2023-02-13T12:22:21;8.90;99.90
19330;DHT22;9799;48.214;16.388;2023-02-13T12:25:57;8.90;99.90
19330;DHT22;9799;48.214;16.388;2023-02-13T12:29:33;9.00;99.90
19330;DHT22;9799;48.214;16.388;2023-02-13T12:33:06;9.00;99.90
19330;DHT22;9799;48.214;16.388;2023-02-13T12:36:43;9.10;99.90
19330;DHT22;9799;48.214;16.388;2023-02-13T12:40:22;9.10;99.90
19330;DHT22;9799;48.214;16.388;2023-02-13T12:48:13;9.00;99.90
19330;DHT22;9799;48.214;16.388;2023-02-13T12:51:48;9.00;99.90
19330;DHT22;9799;48.214;16.388;2023-02-13T12:55:22;9.00;99.90
19330;DHT22;9799;48.214;16.388;2023-02-13T12:59:00;9.10;99.90
19330;DHT22;9799;48.214;16.388;2023-02-13T13:06:52;8.90;99.90
19330;DHT22;9799;48.214;16.388;2023-02-13T13:10:37;8.90;99.90
19330;DHT22;9799;48.214;16.388;2023-02-13T13:14:06;8.90;99.90
19330;DHT22;9799;48.214;16.388;2023-02-13T13:17:46;9.00;99.90
19330;DHT22;9799;48.214;16.388;2023-02-13T13:21:16;9.10;99.90
19330;DHT22;9799;48.214;16.388;2023-02-13T13:24:52;9.20;99.90
19330;DHT22;9799;48.214;16.388;2023-02-13T13:28:19;9.20;99.90
19330;DHT22;9799;48.214;16.388;2023-02-13T13:31:44;9.20;99.90
19330;DHT22;9799;48.214;16.388;2023-02-13T13:35:13;9.30;99.90
19330;DHT22;9799;48.214;16.388;2023-02-13T13:38:45;9.40;99.90
19330;DHT22;9799;48.214;16.388;2023-02-13T13:42:17;9.30;99.90
19330;DHT22;9799;48.214;16.388;2023-02-13T13:45:44;9.40;99.90
19330;DHT22;9799;48.214;16.388;2023-02-13T13:49:26;9.50;99.90
19330;DHT22;9799;48.214;16.388;2023-02-13T13:53:07;9.40;99.90
19330;DHT22;9799;48.214;16.388;2023-02-13T13:57:08;9.50;99.90
19330;DHT22;9799;48.214;16.388;2023-02-13T14:00:32;9.30;99.90
19330;DHT22;9799;48.214;16.388;2023-02-13T14:03:55;9.40;99.90
19330;DHT22;9799;48.214;16.388;2023-02-13T14:07:23;9.40;99.90
19330;DHT22;9799;48.214;16.388;2023-02-13T14:11:05;9.40;99.90
19330;DHT22;9799;48.214;16.388;2023-02-13T14:14:51;9.50;99.90
19330;DHT22;9799;48.214;16.388;2023-02-13T14:18:20;9.50;99.90
19330;DHT22;9799;48.214;16.388;2023-02-13T14:21:42;9.50;99.90
19330;DHT22;9799;48.214;16.388;2023-02-13T14:25:05;9.40;99.90
19330;DHT22;9799;48.214;16.388;2023-02-13T14:28:28;9.40;99.90
19330;DHT22;9799;48.214;16.388;2023-02-13T14:32:18;9.50;99.90
19330;DHT22;9799;48.214;16.388;2023-02-13T14:35:43;9.40;99.90
19330;DHT22;9799;48.214;16.388;2023-02-13T14:39:06;9.30;99.90
19330;DHT22;9799;48.214;16.388;2023-02-13T14:42:29;9.40;99.90
19330;DHT22;9799;48.214;16.388;2023-02-13T14:45:53;9.40;99.90
19330;DHT22;9799;48.214;16.388;2023-02-13T14:49:18;9.50;99.90
19330;DHT22;9799;48.214;16.388;2023-02-13T14:52:43;9.50;99.90
19330;DHT22;9799;48.214;16.388;2023-02-13T14:56:07;9.40;99.90
19330;DHT22;9799;48.214;16.388;2023-02-13T14:59:34;9.40;99.90
19330;DHT22;9799;48.214;16.388;2023-02-13T15:03:05;9.50;99.90
19330;DHT22;9799;48.214;16.388;2023-02-13T15:06:30;9.40;99.90
19330;DHT22;9799;48.214;16.388;2023-02-13T15:09:58;9.40;99.90
19330;DHT22;9799;48.214;16.388;2023-02-13T15:13:22;9.30;99.90
19330;DHT22;9799;48.214;16.388;2023-02-13T15:16:45;9.20;99.90
19330;DHT22;9799;48.214;16.388;2023-02-13T15:20:20;9.20;99.90
19330;DHT22;9799;48.214;16.388;2023-02-13T15:23:44;9.20;99.90
19330;DHT22;9799;48.214;16.388;2023-02-13T15:27:17;9.30;99.90
19330;DHT22;9799;48.214;16.388;2023-02-13T15:30:39;9.20;99.90
19330;DHT22;9799;48.214;16.388;2023-02-13T15:34:00;9.20;99.90
19330;DHT22;9799;48.214;16.388;2023-02-13T15:37:22;9.30;99.90
19330;DHT22;9799;48.214;16.388;2023-02-13T15:40:44;9.40;99.90
19330;DHT22;9799;48.214;16.388;2023-02-13T15:44:12;9.30;99.90
19330;DHT22;9799;48.214;16.388;2023-02-13T15:47:36;9.30;99.90
19330;DHT22;9799;48.214;16.388;2023-02-13T15:50:57;9.30;99.90
19330;DHT22;9799;48.214;16.388;2023-02-13T15:54:24;9.20;99.90
19330;DHT22;9799;48.214;16.388;2023-02-13T15:57:47;9.30;99.90
19330;DHT22;9799;48.214;16.388;2023-02-13T16:01:11;9.30;99.90
19330;DHT22;9799;48.214;16.388;2023-02-13T16:04:34;9.30;99.90
19330;DHT22;9799;48.214;16.388;2023-02-13T16:07:57;9.20;99.90
19330;DHT22;9799;48.214;16.388;2023-02-13T16:11:27;9.20;99.90
19330;DHT22;9799;48.214;16.388;2023-02-13T16:14:52;9.20;99.90
19330;DHT22;9799;48.214;16.388;2023-02-13T16:18:18;9.20;99.90
19330;DHT22;9799;48.214;16.388;2023-02-13T16:21:40;9.20;99.90
19330;DHT22;9799;48.214;16.388;2023-02-13T16:25:22;9.20;99.90
19330;DHT22;9799;48.214;16.388;2023-02-13T16:28:46;9.20;99.90
19330;DHT22;9799;48.214;16.388;2023-02-13T16:32:12;9.20;99.90
19330;DHT22;9799;48.214;16.388;2023-02-13T16:35:42;9.20;99.90
19330;DHT22;9799;48.214;16.388;2023-02-13T16:39:14;9.10;99.90
19330;DHT22;9799;48.214;16.388;2023-02-13T16:42:37;9.10;99.90
19330;DHT22;9799;48.214;16.388;2023-02-13T16:49:52;9.10;99.90
19330;DHT22;9799;48.214;16.388;2023-02-13T16:53:15;9.10;99.90
19330;DHT22;9799;48.214;16.388;2023-02-13T16:56:38;9.20;99.90
19330;DHT22;9799;48.214;16.388;2023-02-13T17:00:05;9.20;99.90
19330;DHT22;9799;48.214;16.388;2023-02-13T17:03:27;9.20;99.90
19330;DHT22;9799;48.214;16.388;2023-02-13T17:06:53;9.20;99.90
19330;DHT22;9799;48.214;16.388;2023-02-13T17:10:21;9.20;99.90
19330;DHT22;9799;48.214;16.388;2023-02-13T17:13:46;9.20;99.90
19330;DHT22;9799;48.214;16.388;2023-02-13T17:17:13;9.10;99.90
19330;DHT22;9799;48.214;16.388;2023-02-13T17:20:39;9.20;99.90
19330;DHT22;9799;48.214;16.388;2023-02-13T17:24:01;9.20;99.90
19330;DHT22;9799;48.214;16.388;2023-02-13T17:27:25;9.10;99.90
19330;DHT22;9799;48.214;16.388;2023-02-13T17:30:48;9.10;99.90
19330;DHT22;9799;48.214;16.388;2023-02-13T17:34:12;9.00;99.90
19330;DHT22;9799;48.214;16.388;2023-02-13T17:37:41;9.00;99.90
19330;DHT22;9799;48.214;16.388;2023-02-13T17:41:13;9.00;99.90
19330;DHT22;9799;48.214;16.388;2023-02-13T17:44:38;8.90;99.90
19330;DHT22;9799;48.214;16.388;2023-02-13T17:48:00;9.00;99.90
19330;DHT22;9799;48.214;16.388;2023-02-13T17:51:22;9.00;99.90
19330;DHT22;9799;48.214;16.388;2023-02-13T17:54:46;9.00;99.90
19330;DHT22;9799;48.214;16.388;2023-02-13T17:58:08;8.90;99.90
19330;DHT22;9799;48.214;16.388;2023-02-13T18:01:32;9.00;99.90
19330;DHT22;9799;48.214;16.388;2023-02-13T18:04:56;8.90;99.90
19330;DHT22;9799;48.214;16.388;2023-02-13T18:08:20;8.90;99.90
19330;DHT22;9799;48.214;16.388;2023-02-13T18:11:42;8.80;99.90
19330;DHT22;9799;48.214;16.388;2023-02-13T18:15:07;8.90;99.90
19330;DHT22;9799;48.214;16.388;2023-02-13T18:18:31;8.90;99.90
19330;DHT22;9799;48.214;16.388;2023-02-13T18:21:54;8.90;99.90
19330;DHT22;9799;48.214;16.388;2023-02-13T18:25:15;8.90;99.90
19330;DHT22;9799;48.214;16.388;2023-02-13T18:28:38;8.90;99.90
19330;DHT22;9799;48.214;16.388;2023-02-13T18:32:05;8.90;99.90
19330;DHT22;9799;48.214;16.388;2023-02-13T18:35:33;8.90;99.90
19330;DHT22;9799;48.214;16.388;2023-02-13T18:38:56;8.80;99.90
19330;DHT22;9799;48.214;16.388;2023-02-13T18:42:20;8.80;99.90
19330;DHT22;9799;48.214;16.388;2023-02-13T18:45:42;8.80;99.90
19330;DHT22;9799;48.214;16.388;2023-02-13T18:49:10;8.90;99.90
19330;DHT22;9799;48.214;16.388;2023-02-13T18:52:35;8.80;99.90
19330;DHT22;9799;48.214;16.388;2023-02-13T18:56:00;8.80;99.90
19330;DHT22;9799;48.214;16.388;2023-02-13T18:59:23;8.60;99.90
19330;DHT22;9799;48.214;16.388;2023-02-13T19:02:46;8.60;99.90
19330;DHT22;9799;48.214;16.388;2023-02-13T19:06:11;8.70;99.90
19330;DHT22;9799;48.214;16.388;2023-02-13T19:09:36;8.70;99.90
19330;DHT22;9799;48.214;16.388;2023-02-13T19:13:00;8.70;99.90
19330;DHT22;9799;48.214;16.388;2023-02-13T19:16:23;8.70;99.90
19330;DHT22;9799;48.214;16.388;2023-02-13T19:19:48;8.70;99.90
19330;DHT22;9799;48.214;16.388;2023-02-13T19:23:11;8.60;99.90
19330;DHT22;9799;48.214;16.388;2023-02-13T19:26:35;8.70;99.90
19330;DHT22;9799;48.214;16.388;2023-02-13T19:29:57;8.70;99.90
19330;DHT22;9799;48.214;16.388;2023-02-13T19:33:20;8.70;99.90
19330;DHT22;9799;48.214;16.388;2023-02-13T19:36:44;8.60;99.90
19330;DHT22;9799;48.214;16.388;2023-02-13T19:40:08;8.40;99.90
19330;DHT22;9799;48.214;16.388;2023-02-13T19:43:37;8.40;99.90
19330;DHT22;9799;48.214;16.388;2023-02-13T19:46:59;8.50;99.90
19330;DHT22;9799;48.214;16.388;2023-02-13T19:50:22;8.50;99.90
19330;DHT22;9799;48.214;16.388;2023-02-13T19:53:44;8.60;99.90
19330;DHT22;9799;48.214;16.388;2023-02-13T19:57:07;8.60;99.90
19330;DHT22;9799;48.214;16.388;2023-02-13T20:00:31;8.60;99.90
19330;DHT22;9799;48.214;16.388;2023-02-13T20:03:54;8.70;99.90
19330;DHT22;9799;48.214;16.388;2023-02-13T20:07:18;8.70;99.90
19330;DHT22;9799;48.214;16.388;2023-02-13T20:10:43;8.50;99.90
19330;DHT22;9799;48.214;16.388;2023-02-13T20:14:06;8.60;99.90
19330;DHT22;9799;48.214;16.388;2023-02-13T20:17:34;8.60;99.90
19330;DHT22;9799;48.214;16.388;2023-02-13T20:21:04;8.60;99.90
19330;DHT22;9799;48.214;16.388;2023-02-13T20:24:26;8.50;99.90
19330;DHT22;9799;48.214;16.388;2023-02-13T20:27:48;8.40;99.90
19330;DHT22;9799;48.214;16.388;2023-02-13T20:31:12;8.40;99.90
19330;DHT22;9799;48.214;16.388;2023-02-13T20:34:38;8.40;99.90
19330;DHT22;9799;48.214;16.388;2023-02-13T20:38:00;8.40;99.90
19330;DHT22;9799;48.214;16.388;2023-02-13T20:41:25;8.40;99.90
19330;DHT22;9799;48.214;16.388;2023-02-13T20:44:48;8.50;99.90
19330;DHT22;9799;48.214;16.388;2023-02-13T20:48:10;8.40;99.90
19330;DHT22;9799;48.214;16.388;2023-02-13T20:51:35;8.50;99.90
19330;DHT22;9799;48.214;16.388;2023-02-13T20:54:57;8.50;99.90
19330;DHT22;9799;48.214;16.388;2023-02-13T20:58:21;8.60;99.90
19330;DHT22;9799;48.214;16.388;2023-02-13T21:01:42;8.60;99.90
19330;DHT22;9799;48.214;16.388;2023-02-13T21:05:06;8.60;99.90
19330;DHT22;9799;48.214;16.388;2023-02-13T21:08:32;8.60;99.90
19330;DHT22;9799;48.214;16.388;2023-02-13T21:11:55;8.60;99.90
19330;DHT22;9799;48.214;16.388;2023-02-13T21:15:18;8.40;99.90
19330;DHT22;9799;48.214;16.388;2023-02-13T21:18:42;8.30;99.90
19330;DHT22;9799;48.214;16.388;2023-02-13T21:22:04;8.30;99.90
19330;DHT22;9799;48.214;16.388;2023-02-13T21:25:33;8.20;99.90
19330;DHT22;9799;48.214;16.388;2023-02-13T21:28:55;8.20;99.90
19330;DHT22;9799;48.214;16.388;2023-02-13T21:32:17;8.20;99.90
19330;DHT22;9799;48.214;16.388;2023-02-13T21:35:39;8.30;99.90
19330;DHT22;9799;48.214;16.388;2023-02-13T21:39:01;8.30;99.90
19330;DHT22;9799;48.214;16.388;2023-02-13T21:42:25;8.20;99.90
19330;DHT22;9799;48.214;16.388;2023-02-13T21:45:46;8.10;99.90
19330;DHT22;9799;48.214;16.388;2023-02-13T21:49:10;8.00;99.90
19330;DHT22;9799;48.214;16.388;2023-02-13T21:52:33;8.00;99.90
19330;DHT22;9799;48.214;16.388;2023-02-13T21:55:55;8.00;99.90
19330;DHT22;9799;48.214;16.388;2023-02-13T21:59:17;7.80;99.90
19330;DHT22;9799;48.214;16.388;2023-02-13T22:02:39;8.00;99.90
19330;DHT22;9799;48.214;16.388;2023-02-13T22:06:01;8.00;99.90
19330;DHT22;9799;48.214;16.388;2023-02-13T22:09:22;7.90;99.90
19330;DHT22;9799;48.214;16.388;2023-02-13T22:12:49;7.90;99.90
19330;DHT22;9799;48.214;16.388;2023-02-13T22:16:13;7.90;99.90
19330;DHT22;9799;48.214;16.388;2023-02-13T22:19:35;7.90;99.90